Time;durP1;ratioP1;P1;durP2;ratioP2;P2;SDS_P1;SDS_P2;PMS_P1;PMS_P2;Temp;Humidity;BMP_temperature;BMP_pressure;BME280_temperature;BME280_humidity;BME280_pressure;Samples;Min_cycle;Max_cycle;Signal;HPM_P1;HPM_P2
2022/09/21 00:01:27;;;;;;;6.38;2.00;;;21.00;99.90;;;;;;5063754;28;20043;-82
2022/09/21 00:03:57;;;;;;;6.82;1.58;;;21.90;99.70;;;;;;5064009;28;20021;-83
2022/09/21 00:06:26;;;;;;;3.25;2.17;;;22.20;98.80;;;;;;5064326;28;20036;-80
2022/09/21 00:08:54;;;;;;;6.15;1.42;;;22.60;98.30;;;;;;5064782;28;20523;-81
2022/09/21 00:11:30;;;;;;;5.28;1.42;;;23.10;97.50;;;;;;5061819;28;20040;-78
2022/09/21 00:14:00;;;;;;;5.40;1.50;;;23.30;96.90;;;;;;5068030;28;20540;-83
2022/09/21 00:16:28;;;;;;;3.60;1.20;;;23.40;96.70;;;;;;5069341;28;20038;-83
2022/09/21 00:18:55;;;;;;;4.38;1.02;;;23.60;96.30;;;;;;5064547;28;20027;-78
2022/09/21 00:21:23;;;;;;;4.25;1.13;;;23.60;96.00;;;;;;5081083;28;20020;-79
2022/09/21 00:23:50;;;;;;;9.15;1.55;;;23.40;96.50;;;;;;5060523;28;20017;-82
2022/09/21 00:26:21;;;;;;;1.92;0.77;;;22.70;96.50;;;;;;5058962;28;20021;-82
2022/09/21 00:28:56;;;;;;;5.50;0.93;;;22.30;97.10;;;;;;5064903;28;20115;-81
2022/09/21 00:31:24;;;;;;;3.85;1.38;;;22.00;97.30;;;;;;5072755;28;20483;-78
2022/09/21 00:33:52;;;;;;;1.88;1.33;;;21.80;97.80;;;;;;5065628;28;20040;-78
2022/09/21 00:36:22;;;;;;;6.03;2.03;;;22.10;97.90;;;;;;5058627;28;20185;-79
2022/09/21 00:38:55;;;;;;;3.20;1.13;;;22.30;97.50;;;;;;5058499;28;20494;-78
2022/09/21 00:41:23;;;;;;;5.80;1.38;;;22.30;97.40;;;;;;5073282;28;20021;-80
2022/09/21 00:44:18;;;;;;;2.83;0.73;;;22.40;97.50;;;;;;5071373;28;20079;-85
2022/09/21 00:46:48;;;;;;;2.53;1.00;;;22.20;97.10;;;;;;5049124;28;20036;-82
2022/09/21 00:49:17;;;;;;;6.32;1.27;;;22.20;97.40;;;;;;5082396;28;20107;-79
2022/09/21 00:51:46;;;;;;;2.95;1.05;;;22.00;97.50;;;;;;5066846;28;20025;-81
2022/09/21 00:54:19;;;;;;;3.03;1.20;;;22.00;97.80;;;;;;5058084;28;20012;-82
2022/09/21 00:56:46;;;;;;;3.55;1.05;;;21.90;97.70;;;;;;5060185;28;20029;-81
2022/09/21 00:59:16;;;;;;;4.28;1.05;;;21.90;97.60;;;;;;5055484;28;20502;-84
2022/09/21 01:01:44;;;;;;;3.70;1.60;;;21.70;97.50;;;;;;5067400;28;20040;-83
2022/09/21 01:04:12;;;;;;;2.33;0.73;;;21.60;97.90;;;;;;5072931;28;20027;-83
2022/09/21 01:06:41;;;;;;;4.78;1.00;;;21.60;97.70;;;;;;5065160;28;20060;-79
2022/09/21 01:09:09;;;;;;;2.67;0.85;;;21.70;98.20;;;;;;5060797;28;20025;-81
2022/09/21 01:11:48;;;;;;;1.50;0.85;;;21.80;97.70;;;;;;5071332;28;20036;-79
2022/09/21 01:14:51;;;;;;;3.40;1.02;;;21.80;97.80;;;;;;5053693;28;20017;-81
2022/09/21 01:17:51;;;;;;;5.07;0.85;;;21.80;98.10;;;;;;5003465;28;20029;-85
2022/09/21 01:20:45;;;;;;;7.35;1.13;;;21.90;97.50;;;;;;5074336;28;20029;-85
2022/09/21 01:23:13;;;;;;;4.10;0.70;;;21.80;97.50;;;;;;5070600;28;20078;-83
2022/09/21 01:26:18;;;;;;;4.00;0.75;;;21.80;97.90;;;;;;5051294;28;20040;-80
2022/09/21 01:29:05;;;;;;;9.10;1.10;;;21.80;97.20;;;;;;5069281;28;20577;-80
2022/09/21 01:31:54;;;;;;;3.75;0.93;;;21.60;97.80;;;;;;5072664;28;20147;-84
2022/09/21 01:34:47;;;;;;;6.00;0.98;;;21.50;97.80;;;;;;5078863;28;20043;-79
2022/09/21 01:37:31;;;;;;;3.13;1.15;;;21.30;98.30;;;;;;5081157;28;20039;-82
2022/09/21 01:40:03;;;;;;;2.28;0.90;;;21.20;98.40;;;;;;5077662;28;20479;-79
2022/09/21 01:42:32;;;;;;;9.35;1.15;;;21.00;98.50;;;;;;5072964;28;20029;-81
2022/09/21 01:45:03;;;;;;;3.20;0.90;;;21.00;98.70;;;;;;5062029;28;20021;-83
2022/09/21 01:47:31;;;;;;;4.72;0.93;;;21.00;98.40;;;;;;5063829;28;20028;-86
2022/09/21 01:50:01;;;;;;;6.60;1.10;;;21.00;98.80;;;;;;5072288;28;20036;-84
2022/09/21 01:52:37;;;;;;;2.95;0.60;;;21.10;98.60;;;;;;5066259;28;20028;-81
2022/09/21 01:55:15;;;;;;;2.38;0.80;;;21.10;98.50;;;;;;5083696;28;20033;-86
2022/09/21 01:58:01;;;;;;;3.90;0.73;;;21.00;98.30;;;;;;5075960;28;20045;-83
2022/09/21 02:00:33;;;;;;;2.33;1.27;;;20.90;98.40;;;;;;5072029;28;20108;-83
2022/09/21 02:03:40;;;;;;;4.82;1.45;;;20.90;98.50;;;;;;5077346;28;20041;-80
2022/09/21 02:06:09;;;;;;;7.68;2.10;;;20.90;98.80;;;;;;5047811;28;20035;-79
2022/09/21 02:08:37;;;;;;;3.42;0.73;;;20.80;98.70;;;;;;5063522;28;20024;-82
2022/09/21 02:11:06;;;;;;;4.40;0.80;;;20.80;98.80;;;;;;5060379;28;20040;-84
2022/09/21 02:13:40;;;;;;;1.35;0.50;;;20.80;98.80;;;;;;5072556;28;20021;-79
2022/09/21 02:16:19;;;;;;;2.35;1.10;;;20.80;98.80;;;;;;5063612;28;20035;-81
2022/09/21 02:19:21;;;;;;;5.07;1.08;;;20.80;99.20;;;;;;5075915;28;20028;-80
2022/09/21 02:22:14;;;;;;;3.95;1.20;;;20.80;98.80;;;;;;5065809;28;20373;-84
2022/09/21 02:24:55;;;;;;;9.93;1.17;;;20.80;98.90;;;;;;5076651;28;20024;-78
2022/09/21 02:27:40;;;;;;;4.93;0.95;;;20.80;98.90;;;;;;5054876;28;20108;-78
2022/09/21 02:30:11;;;;;;;5.18;1.10;;;20.80;99.00;;;;;;5056884;28;20032;-78
2022/09/21 02:33:00;;;;;;;4.30;1.45;;;20.80;98.80;;;;;;5069297;28;20479;-80
2022/09/21 02:35:50;;;;;;;4.53;1.13;;;21.00;98.50;;;;;;5060356;28;20173;-83
2022/09/21 02:38:29;;;;;;;6.07;1.02;;;20.80;98.80;;;;;;5063081;28;20028;-82
2022/09/21 02:41:26;;;;;;;5.65;0.90;;;20.80;98.90;;;;;;5063584;28;20049;-83
2022/09/21 02:44:06;;;;;;;2.25;1.42;;;20.90;98.60;;;;;;5052879;28;20479;-80
2022/09/21 02:46:41;;;;;;;2.90;1.00;;;20.90;99.00;;;;;;5074360;28;20031;-79
2022/09/21 02:49:37;;;;;;;4.22;1.30;;;20.90;99.10;;;;;;5081325;28;20047;-80
2022/09/21 02:52:18;;;;;;;5.67;0.90;;;20.90;99.00;;;;;;5068654;28;20119;-80
2022/09/21 02:54:49;;;;;;;4.53;1.00;;;20.90;99.50;;;;;;5052170;28;20064;-80
2022/09/21 02:57:21;;;;;;;6.57;0.82;;;20.80;99.50;;;;;;5077407;28;20021;-82
2022/09/21 02:59:49;;;;;;;5.25;0.90;;;20.90;98.80;;;;;;5070850;28;20029;-85
2022/09/21 03:02:17;;;;;;;2.65;0.90;;;20.80;98.80;;;;;;5079848;28;20031;-82
2022/09/21 03:04:46;;;;;;;4.72;1.45;;;20.80;99.20;;;;;;5077701;28;20105;-83
2022/09/21 03:07:16;;;;;;;5.00;0.80;;;20.80;99.00;;;;;;5069059;28;20029;-84
2022/09/21 03:09:43;;;;;;;3.13;0.80;;;20.70;99.10;;;;;;5062153;28;20037;-85
2022/09/21 03:12:11;;;;;;;6.93;1.08;;;20.70;99.50;;;;;;5072721;28;20028;-85
2022/09/21 03:14:39;;;;;;;4.80;1.52;;;20.70;99.40;;;;;;5067555;28;20031;-85
2022/09/21 03:17:06;;;;;;;4.55;1.10;;;20.80;99.40;;;;;;5046967;28;20395;-82
2022/09/21 03:19:33;;;;;;;6.78;1.23;;;20.70;98.80;;;;;;5068205;28;20026;-80
2022/09/21 03:22:02;;;;;;;2.72;1.08;;;20.70;99.20;;;;;;5062033;28;20036;-80
2022/09/21 03:24:47;;;;;;;2.08;0.82;;;20.70;99.20;;;;;;5066893;28;20037;-82
2022/09/21 03:27:17;;;;;;;8.05;1.85;;;20.70;99.40;;;;;;5062472;28;20024;-83
2022/09/21 03:29:45;;;;;;;3.33;1.25;;;20.60;99.50;;;;;;5069092;28;20044;-83
2022/09/21 03:32:14;;;;;;;2.47;1.45;;;20.70;99.60;;;;;;5073679;28;20049;-82
2022/09/21 03:34:41;;;;;;;4.53;1.42;;;20.70;99.10;;;;;;5070811;28;20366;-83
2022/09/21 03:37:10;;;;;;;4.40;1.17;;;20.60;99.40;;;;;;5074271;28;20477;-82
2022/09/21 03:39:37;;;;;;;2.97;1.02;;;20.50;99.50;;;;;;5057915;28;20025;-84
2022/09/21 03:42:05;;;;;;;3.95;1.92;;;20.40;99.70;;;;;;5054977;28;20025;-83
2022/09/21 03:44:32;;;;;;;3.05;1.20;;;20.40;99.90;;;;;;5055945;28;20036;-83
2022/09/21 03:47:00;;;;;;;4.97;1.02;;;20.30;99.90;;;;;;5054976;28;20036;-81
2022/09/21 03:49:28;;;;;;;3.58;0.98;;;20.20;99.90;;;;;;5064027;28;20414;-83
2022/09/21 03:51:55;;;;;;;4.82;1.42;;;20.20;99.90;;;;;;5055520;28;20056;-83
2022/09/21 03:54:24;;;;;;;4.60;1.17;;;20.20;99.90;;;;;;5075594;28;20482;-86
2022/09/21 03:56:52;;;;;;;3.38;0.90;;;20.10;99.90;;;;;;5080063;28;20437;-86
2022/09/21 03:59:19;;;;;;;4.55;1.15;;;20.00;99.90;;;;;;5057751;28;20029;-83
2022/09/21 04:01:46;;;;;;;2.58;0.93;;;20.00;99.90;;;;;;5065358;28;20032;-80
2022/09/21 04:04:15;;;;;;;1.33;0.93;;;20.00;99.90;;;;;;5067474;28;20476;-81
2022/09/21 04:06:45;;;;;;;2.10;0.82;;;20.00;99.90;;;;;;5057755;28;20040;-80
2022/09/21 04:09:12;;;;;;;4.65;0.88;;;20.00;99.90;;;;;;5066928;28;20027;-82
2022/09/21 04:11:39;;;;;;;4.25;1.10;;;20.00;99.90;;;;;;5071167;28;20094;-82
2022/09/21 04:14:07;;;;;;;3.85;0.77;;;20.10;99.90;;;;;;5075385;28;20028;-80
2022/09/21 04:16:34;;;;;;;3.92;1.58;;;20.10;99.90;;;;;;5063991;28;20040;-82
2022/09/21 04:19:02;;;;;;;5.80;1.40;;;20.10;99.90;;;;;;5079901;28;20046;-84
2022/09/21 04:21:29;;;;;;;6.47;1.38;;;20.10;99.90;;;;;;5065736;28;20028;-80
2022/09/21 04:23:57;;;;;;;4.35;1.33;;;20.00;99.90;;;;;;5074764;28;20403;-84
2022/09/21 04:26:31;;;;;;;4.35;1.55;;;20.00;99.90;;;;;;5069518;28;20037;-84
2022/09/21 04:28:58;;;;;;;5.82;1.88;;;19.90;99.90;;;;;;5059921;28;20052;-79
2022/09/21 04:31:28;;;;;;;2.90;1.48;;;19.80;99.90;;;;;;5071936;28;20048;-80
2022/09/21 04:33:56;;;;;;;5.40;1.55;;;19.80;99.90;;;;;;5067495;28;20082;-80
2022/09/21 04:36:25;;;;;;;2.42;1.05;;;19.80;99.90;;;;;;5064904;28;20415;-82
2022/09/21 04:38:53;;;;;;;3.13;1.52;;;19.80;99.90;;;;;;5057324;28;20100;-80
2022/09/21 04:41:20;;;;;;;5.00;2.42;;;19.80;99.90;;;;;;5064449;28;20027;-83
2022/09/21 04:43:48;;;;;;;5.75;1.73;;;19.70;99.90;;;;;;5058993;28;20499;-82
2022/09/21 04:46:18;;;;;;;2.00;0.80;;;19.70;99.90;;;;;;5069272;28;20490;-79
2022/09/21 04:48:47;;;;;;;5.10;1.52;;;19.70;99.90;;;;;;5079142;28;20457;-81
2022/09/21 04:51:15;;;;;;;4.50;1.38;;;19.60;99.90;;;;;;5048103;28;20112;-80
2022/09/21 04:53:44;;;;;;;5.38;1.77;;;19.60;99.90;;;;;;5063566;28;20115;-80
2022/09/21 04:56:15;;;;;;;6.70;2.05;;;19.60;99.90;;;;;;5077536;28;20039;-81
2022/09/21 04:58:43;;;;;;;4.70;1.55;;;19.60;99.90;;;;;;5047700;28;20064;-79
2022/09/21 05:01:10;;;;;;;5.13;1.35;;;19.60;99.90;;;;;;5065477;28;20056;-79
2022/09/21 05:03:38;;;;;;;3.38;1.60;;;19.60;99.90;;;;;;5068891;28;20024;-83
2022/09/21 05:06:05;;;;;;;1.48;1.00;;;19.60;99.90;;;;;;5063316;28;20051;-82
2022/09/21 05:11:19;;;;;;;5.95;1.10;;;19.60;99.90;;;;;;5063403;28;20043;-80
2022/09/21 05:13:47;;;;;;;2.63;1.33;;;19.60;99.90;;;;;;5067063;28;20028;-81
2022/09/21 05:16:16;;;;;;;6.03;1.38;;;19.60;99.90;;;;;;5070129;28;20594;-79
2022/09/21 05:18:44;;;;;;;3.05;1.50;;;19.60;99.90;;;;;;5071709;28;20056;-82
2022/09/21 05:21:13;;;;;;;5.55;1.05;;;19.60;99.90;;;;;;5072579;28;20023;-86
2022/09/21 05:23:41;;;;;;;1.38;0.80;;;19.60;99.90;;;;;;5071966;28;20033;-82
2022/09/21 05:26:08;;;;;;;13.05;1.70;;;19.60;99.90;;;;;;5061317;28;20024;-81
2022/09/21 05:28:36;;;;;;;2.80;1.17;;;19.50;99.90;;;;;;5070516;28;20021;-85
2022/09/21 05:31:12;;;;;;;7.18;1.10;;;19.50;99.90;;;;;;5067059;28;20052;-84
2022/09/21 05:33:43;;;;;;;5.05;1.35;;;19.50;99.90;;;;;;5074987;28;20024;-82
2022/09/21 05:36:26;;;;;;;2.60;1.55;;;19.40;99.90;;;;;;5067410;28;20051;-83
2022/09/21 05:38:53;;;;;;;3.88;1.00;;;19.40;99.90;;;;;;5052396;28;20024;-81
2022/09/21 05:41:21;;;;;;;4.53;1.63;;;19.40;99.90;;;;;;5069060;28;20036;-81
2022/09/21 05:43:49;;;;;;;5.47;1.50;;;19.40;99.90;;;;;;5061473;28;20099;-79
2022/09/21 05:46:37;;;;;;;7.78;1.45;;;19.40;99.90;;;;;;5074583;28;20027;-82
2022/09/21 05:49:33;;;;;;;5.13;1.45;;;19.30;99.90;;;;;;5070321;28;20043;-81
2022/09/21 05:52:09;;;;;;;4.80;1.35;;;19.30;99.90;;;;;;5035932;28;20044;-80
2022/09/21 05:55:02;;;;;;;4.40;1.88;;;19.30;99.90;;;;;;5057428;28;20067;-81
2022/09/21 05:57:54;;;;;;;3.50;0.93;;;19.30;99.90;;;;;;5066428;28;20025;-81
2022/09/21 06:00:31;;;;;;;3.30;1.35;;;19.30;99.90;;;;;;5064507;28;20047;-81
2022/09/21 06:03:16;;;;;;;2.85;0.98;;;19.30;99.90;;;;;;5050130;28;20076;-82
2022/09/21 06:05:46;;;;;;;4.65;0.90;;;19.20;99.90;;;;;;5076796;28;20044;-82
2022/09/21 06:08:13;;;;;;;5.45;1.00;;;19.10;99.90;;;;;;5073997;28;20086;-82
2022/09/21 06:10:41;;;;;;;3.97;1.05;;;19.10;99.90;;;;;;5075141;28;20391;-82
2022/09/21 06:13:08;;;;;;;2.38;1.13;;;19.10;99.90;;;;;;5062965;28;20012;-85
2022/09/21 06:15:39;;;;;;;2.90;1.08;;;19.10;99.90;;;;;;5058542;28;20034;-86
2022/09/21 06:18:09;;;;;;;3.17;1.10;;;19.10;99.90;;;;;;5060400;28;20024;-83
2022/09/21 06:20:37;;;;;;;3.78;1.73;;;19.00;99.90;;;;;;5064864;28;20082;-81
2022/09/21 06:23:10;;;;;;;5.25;1.33;;;19.00;99.90;;;;;;5056988;28;20094;-82
2022/09/21 06:25:37;;;;;;;1.73;1.10;;;19.00;99.90;;;;;;5054736;28;20131;-85
2022/09/21 06:28:11;;;;;;;4.15;1.05;;;18.90;99.90;;;;;;5062575;28;20025;-84
2022/09/21 06:30:41;;;;;;;5.28;1.27;;;18.90;99.90;;;;;;5073171;28;20028;-81
2022/09/21 06:33:09;;;;;;;3.65;1.30;;;18.80;99.90;;;;;;5072540;28;20032;-84
2022/09/21 06:35:37;;;;;;;4.40;1.10;;;18.80;99.90;;;;;;5081347;28;20024;-81
2022/09/21 06:38:06;;;;;;;8.02;1.77;;;18.70;99.90;;;;;;5073777;28;20493;-81
2022/09/21 06:40:36;;;;;;;2.75;1.70;;;18.70;99.90;;;;;;5058944;28;20171;-79
2022/09/21 06:43:04;;;;;;;5.20;1.58;;;18.70;99.90;;;;;;5070246;28;20028;-80
2022/09/21 06:45:32;;;;;;;6.53;2.63;;;18.60;99.90;;;;;;5076580;28;20082;-83
2022/09/21 06:47:59;;;;;;;4.50;1.58;;;18.60;99.90;;;;;;5079843;28;20024;-82
2022/09/21 06:50:27;;;;;;;6.25;3.63;;;18.60;99.90;;;;;;5075678;28;20060;-81
2022/09/21 06:52:54;;;;;;;10.13;3.88;;;18.60;99.90;;;;;;5090486;28;20062;-81
2022/09/21 06:55:21;;;;;;;7.15;2.70;;;18.50;99.90;;;;;;5084386;28;20025;-84
2022/09/21 06:57:50;;;;;;;6.80;1.50;;;18.60;99.90;;;;;;5057851;28;20050;-80
2022/09/21 07:00:18;;;;;;;3.20;1.30;;;18.50;99.90;;;;;;5075866;28;20029;-80
2022/09/21 07:02:46;;;;;;;2.53;1.73;;;18.50;99.90;;;;;;5067177;28;20045;-85
2022/09/21 07:05:13;;;;;;;7.07;1.95;;;18.40;99.90;;;;;;5074983;28;20475;-78
2022/09/21 07:07:41;;;;;;;3.00;1.58;;;18.40;99.90;;;;;;5068669;28;20078;-83
2022/09/21 07:10:08;;;;;;;4.90;1.42;;;18.30;99.90;;;;;;5057428;28;20025;-79
2022/09/21 07:12:36;;;;;;;2.70;1.40;;;18.20;99.90;;;;;;5064081;28;20050;-79
2022/09/21 07:15:05;;;;;;;3.72;1.60;;;18.20;99.90;;;;;;5067351;28;20035;-80
2022/09/21 07:17:34;;;;;;;5.78;1.50;;;18.10;99.90;;;;;;5068610;28;20075;-79
2022/09/21 07:20:03;;;;;;;2.22;1.40;;;18.10;99.90;;;;;;5056947;28;20043;-80
2022/09/21 07:22:32;;;;;;;9.70;2.35;;;18.10;99.90;;;;;;5065039;28;20048;-82
2022/09/21 07:24:59;;;;;;;5.28;1.52;;;18.00;99.90;;;;;;5060404;28;20025;-83
2022/09/21 07:27:28;;;;;;;3.83;1.55;;;18.00;99.90;;;;;;5069829;28;20036;-82
2022/09/21 07:29:56;;;;;;;6.03;1.88;;;17.90;99.90;;;;;;5071375;28;20048;-82
2022/09/21 07:32:24;;;;;;;3.35;1.73;;;17.90;99.90;;;;;;5061197;28;20053;-82
2022/09/21 07:34:55;;;;;;;3.88;2.47;;;17.90;99.90;;;;;;5059678;28;20070;-81
2022/09/21 07:37:24;;;;;;;6.60;3.75;;;17.80;99.90;;;;;;5057738;28;20129;-80
2022/09/21 07:39:52;;;;;;;8.77;3.35;;;17.80;99.90;;;;;;5055305;28;20036;-81
2022/09/21 07:42:21;;;;;;;4.70;2.80;;;17.70;99.90;;;;;;5051821;28;20036;-80
2022/09/21 07:44:49;;;;;;;4.40;2.40;;;17.60;99.90;;;;;;5052865;28;20028;-81
2022/09/21 07:47:16;;;;;;;3.63;1.80;;;17.60;99.90;;;;;;5053881;28;20025;-81
2022/09/21 07:49:45;;;;;;;7.80;3.10;;;17.50;99.90;;;;;;5055556;28;20056;-82
2022/09/21 07:52:14;;;;;;;5.78;3.78;;;17.40;99.90;;;;;;5059083;28;20062;-81
2022/09/21 07:54:45;;;;;;;4.43;2.15;;;17.30;99.90;;;;;;5058849;28;20036;-83
2022/09/21 07:59:58;;;;;;;3.78;2.35;;;17.30;99.90;;;;;;5064756;28;20039;-79
2022/09/21 08:02:25;;;;;;;4.88;2.55;;;17.30;99.90;;;;;;5058398;28;20379;-83
2022/09/21 08:04:53;;;;;;;5.53;2.33;;;17.30;99.90;;;;;;5069562;28;20031;-81
2022/09/21 08:07:21;;;;;;;7.03;2.78;;;17.30;99.90;;;;;;5066093;28;20040;-85
2022/09/21 08:09:49;;;;;;;4.63;2.95;;;17.40;99.90;;;;;;5071074;28;20090;-81
2022/09/21 08:12:19;;;;;;;9.38;4.05;;;17.40;99.90;;;;;;5062166;28;20039;-82
2022/09/21 08:14:47;;;;;;;4.97;3.20;;;17.40;99.90;;;;;;5058356;28;20020;-81
2022/09/21 08:17:15;;;;;;;6.22;3.10;;;17.40;99.90;;;;;;5071162;28;20043;-79
2022/09/21 08:19:42;;;;;;;4.78;2.97;;;17.40;99.90;;;;;;5061198;28;20031;-86
2022/09/21 08:22:11;;;;;;;7.05;3.22;;;17.30;99.90;;;;;;5054595;28;20074;-83
2022/09/21 08:24:39;;;;;;;6.22;3.53;;;17.30;99.90;;;;;;5054707;28;20033;-86
2022/09/21 08:27:07;;;;;;;6.40;3.30;;;17.30;99.90;;;;;;5057077;28;20365;-84
2022/09/21 08:29:35;;;;;;;5.78;3.25;;;17.20;99.90;;;;;;5057268;28;20025;-85
2022/09/21 08:32:03;;;;;;;15.40;3.80;;;17.20;99.90;;;;;;5058761;28;20410;-82
2022/09/21 08:34:31;;;;;;;6.65;3.28;;;17.20;99.90;;;;;;5055067;28;20032;-83
2022/09/21 08:36:58;;;;;;;5.30;3.40;;;17.20;99.90;;;;;;5061291;28;20024;-83
2022/09/21 08:39:26;;;;;;;7.75;3.72;;;17.20;99.90;;;;;;5057643;28;20032;-79
2022/09/21 08:42:08;;;;;;;7.18;3.58;;;17.20;99.90;;;;;;5052531;28;20028;-80
2022/09/21 08:44:44;;;;;;;6.15;2.80;;;17.20;99.90;;;;;;5056502;28;20032;-80
2022/09/21 08:47:26;;;;;;;4.30;2.55;;;17.10;99.90;;;;;;5050661;28;20032;-80
2022/09/21 08:49:58;;;;;;;4.30;2.58;;;17.10;99.90;;;;;;5055035;28;20162;-85
2022/09/21 08:52:26;;;;;;;4.20;2.67;;;17.00;99.90;;;;;;5061816;28;20040;-81
2022/09/21 08:55:32;;;;;;;6.22;2.95;;;16.90;99.90;;;;;;5071522;28;20025;-83
2022/09/21 08:58:01;;;;;;;6.38;3.33;;;16.90;99.90;;;;;;4974665;28;20027;-80
2022/09/21 09:00:36;;;;;;;6.72;2.08;;;16.80;99.90;;;;;;4979784;28;20393;-80
2022/09/21 09:03:27;;;;;;;3.87;2.10;;;16.80;99.90;;;;;;5022892;28;20033;-81
2022/09/21 09:06:00;;;;;;;6.72;2.17;;;16.80;99.90;;;;;;5059188;28;20346;-80
2022/09/21 09:09:01;;;;;;;4.35;2.03;;;16.80;99.90;;;;;;5072034;28;20064;-84
2022/09/21 09:11:51;;;;;;;6.68;2.53;;;16.80;99.90;;;;;;5055154;28;20373;-82
2022/09/21 09:14:54;;;;;;;5.18;3.08;;;16.70;99.90;;;;;;5063061;28;20053;-81
2022/09/21 09:17:29;;;;;;;7.13;3.35;;;16.70;99.90;;;;;;4970194;28;20030;-82
2022/09/21 09:20:18;;;;;;;4.57;3.13;;;16.70;99.90;;;;;;5049702;28;20083;-85
2022/09/21 09:23:11;;;;;;;10.23;3.65;;;16.60;99.90;;;;;;5067009;28;20044;-79
2022/09/21 09:25:41;;;;;;;7.22;2.78;;;16.50;99.90;;;;;;5076046;28;20020;-80
2022/09/21 09:28:33;;;;;;;7.22;2.58;;;16.50;99.90;;;;;;5063788;28;20039;-82
2022/09/21 09:31:10;;;;;;;4.63;2.47;;;16.40;99.90;;;;;;5070317;28;20052;-79
2022/09/21 09:33:57;;;;;;;5.97;2.63;;;16.40;99.90;;;;;;5071405;28;20064;-82
2022/09/21 09:36:31;;;;;;;6.05;3.50;;;16.40;99.90;;;;;;5059169;28;20036;-78
2022/09/21 09:39:04;;;;;;;9.80;3.28;;;16.40;99.90;;;;;;5070871;28;20031;-80
2022/09/21 09:41:56;;;;;;;6.82;3.28;;;16.40;99.90;;;;;;5052915;28;20025;-82
2022/09/21 09:44:40;;;;;;;5.20;2.90;;;16.40;99.90;;;;;;5067982;28;20028;-83
2022/09/21 09:47:28;;;;;;;5.53;2.58;;;16.40;99.90;;;;;;5062053;28;20032;-78
2022/09/21 09:50:14;;;;;;;13.68;3.42;;;16.40;99.90;;;;;;5060640;28;20033;-77
2022/09/21 09:52:46;;;;;;;4.38;2.20;;;16.40;99.90;;;;;;5057006;28;20063;-79
2022/09/21 09:55:30;;;;;;;6.60;3.15;;;16.30;99.90;;;;;;5057926;28;20060;-80
2022/09/21 09:57:58;;;;;;;7.25;2.72;;;16.30;99.90;;;;;;5053868;28;20068;-77
2022/09/21 10:00:26;;;;;;;6.07;2.80;;;16.30;99.90;;;;;;5075554;28;20027;-80
2022/09/21 10:02:57;;;;;;;5.43;2.97;;;16.30;99.90;;;;;;5082193;28;20027;-80
2022/09/21 10:05:40;;;;;;;8.10;3.45;;;16.30;99.90;;;;;;5072289;28;20056;-79
2022/09/21 10:08:45;;;;;;;5.35;2.83;;;16.30;99.90;;;;;;5077248;28;20051;-81
2022/09/21 10:11:15;;;;;;;6.93;3.65;;;16.30;99.90;;;;;;5063168;28;20059;-84
2022/09/21 10:13:47;;;;;;;9.05;3.33;;;16.30;99.90;;;;;;5058647;28;20033;-81
2022/09/21 10:16:22;;;;;;;6.10;3.35;;;16.40;99.90;;;;;;5060712;28;20173;-83
2022/09/21 10:19:00;;;;;;;6.70;3.70;;;16.40;99.90;;;;;;5073808;28;20024;-82
2022/09/21 10:21:33;;;;;;;8.60;3.83;;;16.40;99.90;;;;;;5084668;28;20031;-81
2022/09/21 10:24:04;;;;;;;8.32;3.58;;;16.40;99.90;;;;;;5048414;28;20037;-81
2022/09/21 10:26:35;;;;;;;8.05;3.45;;;16.40;99.90;;;;;;5058351;28;20032;-80
2022/09/21 10:29:22;;;;;;;11.85;4.78;;;16.40;99.90;;;;;;5065535;28;20391;-82
2022/09/21 10:31:59;;;;;;;12.00;4.82;;;16.40;99.90;;;;;;5067122;28;20499;-83
2022/09/21 10:34:29;;;;;;;8.27;4.10;;;16.40;99.90;;;;;;5072014;28;20024;-80
2022/09/21 10:36:58;;;;;;;9.98;4.20;;;16.40;99.90;;;;;;5067660;28;20497;-81
2022/09/21 10:39:48;;;;;;;7.85;4.97;;;16.40;99.90;;;;;;5065639;28;20036;-82
2022/09/21 10:42:18;;;;;;;9.25;4.93;;;16.40;99.90;;;;;;5049624;28;20029;-79
2022/09/21 10:44:49;;;;;;;6.00;3.95;;;16.40;99.90;;;;;;5034395;28;20036;-81
2022/09/21 10:47:35;;;;;;;8.52;4.60;;;16.40;99.90;;;;;;5058274;28;20052;-81
2022/09/21 10:50:19;;;;;;;6.73;4.50;;;16.40;99.90;;;;;;5052262;28;20509;-82
2022/09/21 10:52:47;;;;;;;11.15;4.72;;;16.30;99.90;;;;;;5078460;28;20039;-80
2022/09/21 10:55:21;;;;;;;9.10;4.30;;;16.30;99.90;;;;;;5069165;28;20126;-82
2022/09/21 10:57:51;;;;;;;7.47;3.58;;;16.30;99.90;;;;;;5070644;28;20084;-82
2022/09/21 11:00:24;;;;;;;6.65;3.40;;;16.30;99.90;;;;;;5071806;28;20032;-80
2022/09/21 11:02:54;;;;;;;12.15;4.30;;;16.30;99.90;;;;;;5061636;28;20047;-84
2022/09/21 11:05:30;;;;;;;9.80;4.95;;;16.30;99.90;;;;;;5057545;28;20078;-80
2022/09/21 11:08:28;;;;;;;8.65;4.75;;;16.30;99.90;;;;;;5070852;28;20114;-79
2022/09/21 11:11:29;;;;;;;7.65;4.20;;;16.30;99.90;;;;;;5061323;28;20036;-80
2022/09/21 11:14:02;;;;;;;8.35;5.50;;;16.30;99.90;;;;;;5066125;28;20084;-84
2022/09/21 11:16:35;;;;;;;10.35;4.85;;;16.30;99.90;;;;;;5070570;28;20040;-81
2022/09/21 11:19:49;;;;;;;8.73;4.18;;;16.30;99.90;;;;;;5069485;28;20055;-80
2022/09/21 11:22:19;;;;;;;5.82;4.13;;;16.30;99.90;;;;;;5057108;28;20041;-85
2022/09/21 11:25:08;;;;;;;9.20;5.57;;;16.30;99.90;;;;;;5052225;28;20089;-82
2022/09/21 11:27:48;;;;;;;9.48;4.97;;;16.30;99.90;;;;;;5056773;28;20054;-83
2022/09/21 11:30:18;;;;;;;7.47;4.93;;;16.30;99.90;;;;;;5063559;28;20123;-81
2022/09/21 11:33:03;;;;;;;9.75;4.85;;;16.30;99.90;;;;;;5061873;28;20080;-85
2022/09/21 11:35:43;;;;;;;7.45;4.75;;;16.30;99.90;;;;;;5053837;28;20033;-78
2022/09/21 11:38:35;;;;;;;7.93;4.10;;;16.30;99.90;;;;;;5058751;28;20185;-81
2022/09/21 11:41:34;;;;;;;10.05;3.85;;;16.30;99.90;;;;;;5067200;28;20043;-82
2022/09/21 11:44:20;;;;;;;6.80;4.05;;;16.30;99.90;;;;;;5077560;28;20043;-80
2022/09/21 11:46:59;;;;;;;6.40;4.88;;;16.20;99.90;;;;;;5066904;28;20113;-81
2022/09/21 11:49:39;;;;;;;6.57;4.18;;;16.20;99.90;;;;;;5063894;28;20032;-83
2022/09/21 11:52:21;;;;;;;6.32;4.25;;;16.20;99.90;;;;;;5056779;28;20044;-82
2022/09/21 11:55:22;;;;;;;5.68;4.25;;;16.20;99.90;;;;;;5072410;28;20029;-81
2022/09/21 11:58:22;;;;;;;12.40;4.70;;;16.20;99.90;;;;;;5066401;28;20060;-81
2022/09/21 12:00:58;;;;;;;6.22;4.13;;;16.10;99.90;;;;;;5070261;28;20081;-85
2022/09/21 12:04:13;;;;;;;6.63;4.20;;;16.10;99.90;;;;;;5065643;28;20037;-86
2022/09/21 12:07:02;;;;;;;6.25;4.57;;;16.10;99.90;;;;;;5005737;28;20107;-81
2022/09/21 12:09:53;;;;;;;5.88;3.67;;;16.10;99.90;;;;;;5061962;28;20066;-79
2022/09/21 12:12:42;;;;;;;7.45;4.15;;;16.10;99.90;;;;;;5061680;28;20036;-82
2022/09/21 12:15:10;;;;;;;5.85;4.00;;;16.10;99.90;;;;;;5067208;28;20031;-84
2022/09/21 12:18:28;;;;;;;5.25;4.75;;;16.10;99.90;;;;;;5071965;28;20036;-86
2022/09/21 12:21:19;;;;;;;8.60;4.72;;;16.10;99.90;;;;;;5052152;28;20040;-85
2022/09/21 12:24:04;;;;;;;6.70;4.43;;;16.00;99.90;;;;;;5062198;28;20089;-87
2022/09/21 12:26:45;;;;;;;6.40;5.47;;;16.00;99.90;;;;;;5051165;28;20033;-82
2022/09/21 12:29:29;;;;;;;10.23;5.68;;;16.00;99.90;;;;;;5059397;28;20025;-84
2022/09/21 12:32:10;;;;;;;6.63;5.25;;;16.00;99.90;;;;;;5057355;28;20148;-85
2022/09/21 12:34:45;;;;;;;9.88;6.13;;;16.00;99.90;;;;;;5065408;28;20498;-86
2022/09/21 12:37:32;;;;;;;7.90;6.28;;;16.00;99.90;;;;;;5063892;28;20523;-90
2022/09/21 12:40:15;;;;;;;10.85;6.45;;;16.00;99.90;;;;;;5067814;28;20502;-87
2022/09/21 12:42:46;;;;;;;13.93;7.53;;;16.00;99.90;;;;;;5066008;28;20074;-88
2022/09/21 12:45:45;;;;;;;10.25;6.72;;;15.90;99.90;;;;;;5066198;28;20082;-87
2022/09/21 12:48:37;;;;;;;12.30;7.35;;;15.90;99.90;;;;;;5061437;28;20451;-88
2022/09/21 12:51:36;;;;;;;10.10;6.55;;;15.90;99.90;;;;;;5059679;28;20040;-78
2022/09/21 12:54:27;;;;;;;9.27;7.20;;;15.80;99.90;;;;;;5061608;28;20032;-88
2022/09/21 12:57:21;;;;;;;11.07;7.03;;;15.80;99.90;;;;;;5073461;28;20550;-81
2022/09/21 13:00:09;;;;;;;8.75;5.82;;;15.80;99.90;;;;;;5059477;28;20387;-82
2022/09/21 13:03:04;;;;;;;12.13;6.60;;;15.80;99.90;;;;;;5058045;28;20047;-83
2022/09/21 13:05:51;;;;;;;9.13;7.65;;;15.70;99.90;;;;;;5067690;28;20821;-81
2022/09/21 13:08:45;;;;;;;8.02;5.38;;;15.70;99.90;;;;;;5071019;28;20028;-83
2022/09/21 13:11:19;;;;;;;7.05;6.13;;;15.70;99.90;;;;;;5060130;28;20102;-81
2022/09/21 13:13:51;;;;;;;15.05;8.57;;;15.60;99.90;;;;;;5063751;28;20040;-78
2022/09/21 13:16:35;;;;;;;11.85;7.28;;;15.60;99.90;;;;;;5074459;28;20040;-80
2022/09/21 13:19:22;;;;;;;7.65;6.57;;;15.60;99.90;;;;;;5061030;28;20032;-89
2022/09/21 13:22:24;;;;;;;7.70;6.63;;;15.60;99.90;;;;;;5059112;28;20029;-88
2022/09/21 13:25:18;;;;;;;13.15;8.60;;;15.60;99.90;;;;;;5078890;28;20067;-89
2022/09/21 13:28:03;;;;;;;16.00;11.23;;;15.60;99.90;;;;;;5065543;28;20605;-86
2022/09/21 13:30:32;;;;;;;10.02;7.60;;;15.60;99.90;;;;;;5067750;28;20119;-82
2022/09/21 13:33:01;;;;;;;11.38;7.70;;;15.60;99.90;;;;;;5082415;28;20518;-85
2022/09/21 13:36:02;;;;;;;12.48;8.25;;;15.70;99.90;;;;;;5046453;28;20036;-86